Terminal Aerodrome Forecast
Issued by NWS Charleston, WV

Current Version | Previous Version | Text Only | Print | Product List | Glossary Off
Versions: 1 2 3 4 5 6 7 8 9 10 11 12 13 14 15 16 17 18 19 20 21 22 23 24 25 26 27

000
FTUS41 KRLX 270900 AAA
TAFEKN
TAF AMD
KEKN 270904Z 2709/2806 VRB03KT 6SM BR BKN028 BKN060
      TEMPO 2709/2712 4SM BR SCT028
     FM271200 23004KT P6SM SCT030 BKN100
     FM271500 24008KT P6SM VCTS BKN040CB
     FM271900 25012G20KT 5SM TSRA BKN035CB
     FM280100 24010KT P6SM BKN040
     FM280400 28006KT P6SM BKN035=

USA.gov is the U.S. government's official web portal to all federal, state and local government web resources and services.